Time;durP1;ratioP1;P1;durP2;ratioP2;P2;SDS_P1;SDS_P2;PMS_P1;PMS_P2;Temp;Humidity;BMP_temperature;BMP_pressure;BME280_temperature;BME280_humidity;BME280_pressure;Samples;Min_cycle;Max_cycle;Signal;HPM_P1;HPM_P2
2021/03/08 00:00:43;;;;;;;11.63;7.10;;;;;;;2.18;52.67;97538.19;4990055;28;20053;-77
2021/03/08 00:03:10;;;;;;;13.43;7.35;;;;;;;2.22;52.41;97530.91;4962491;28;20092;-77
2021/03/08 00:05:36;;;;;;;12.25;7.25;;;;;;;2.27;52.32;97535.50;4958771;28;20124;-77
2021/03/08 00:08:02;;;;;;;11.68;7.20;;;;;;;2.44;52.22;97535.06;4974981;28;20125;-77
2021/03/08 00:10:28;;;;;;;11.98;6.80;;;;;;;2.31;52.43;97531.59;4970254;28;20512;-77
2021/03/08 00:12:54;;;;;;;11.15;6.50;;;;;;;2.33;52.22;97527.06;4959379;28;20061;-77
2021/03/08 00:15:20;;;;;;;10.80;6.80;;;;;;;2.47;51.99;97522.84;4976243;28;20030;-77
2021/03/08 00:17:46;;;;;;;10.52;6.60;;;;;;;2.51;52.36;97529.22;4959971;28;20124;-77
2021/03/08 00:20:14;;;;;;;15.48;8.13;;;;;;;2.37;52.34;97528.28;4959712;28;20117;-77
2021/03/08 00:22:40;;;;;;;11.30;6.82;;;;;;;2.43;52.30;97535.25;4959283;28;20481;-77
2021/03/08 00:25:07;;;;;;;13.15;7.38;;;;;;;2.32;51.88;97531.41;4962185;28;20053;-77
2021/03/08 00:27:33;;;;;;;11.32;6.53;;;;;;;2.46;51.90;97539.25;4993372;28;20029;-77
2021/03/08 00:29:58;;;;;;;10.88;6.28;;;;;;;2.46;52.03;97547.75;4977657;28;20037;-77
2021/03/08 00:32:26;;;;;;;13.27;6.53;;;;;;;2.38;52.67;97538.41;4993426;28;20038;-77
2021/03/08 00:34:51;;;;;;;10.10;6.95;;;;;;;2.41;52.43;97535.44;4968495;28;20461;-77
2021/03/08 00:37:17;;;;;;;14.52;7.38;;;;;;;2.46;51.91;97526.41;4973780;28;20048;-77
2021/03/08 00:39:42;;;;;;;9.95;6.90;;;;;;;2.46;51.75;97527.19;4992926;28;20033;-77
2021/03/08 00:42:08;;;;;;;10.80;6.82;;;;;;;2.43;52.59;97527.53;4976302;28;20450;-77
2021/03/08 00:44:34;;;;;;;14.45;7.28;;;;;;;2.50;51.89;97525.03;4970642;28;20053;-77
2021/03/08 00:47:00;;;;;;;14.07;6.95;;;;;;;2.42;52.32;97533.69;4960347;28;20120;-78
2021/03/08 00:49:26;;;;;;;11.35;7.28;;;;;;;2.30;52.29;97533.38;4981454;28;20109;-77
2021/03/08 00:51:52;;;;;;;11.38;6.25;;;;;;;2.35;52.82;97532.81;4975512;28;20038;-77
2021/03/08 00:54:18;;;;;;;11.07;6.97;;;;;;;2.15;53.17;97530.03;4976276;28;20025;-78
2021/03/08 00:56:44;;;;;;;13.05;7.88;;;;;;;2.16;53.25;97535.00;4960134;28;20034;-77
2021/03/08 00:59:10;;;;;;;15.20;8.10;;;;;;;1.82;53.77;97515.84;4984811;28;20045;-77
2021/03/08 01:01:35;;;;;;;13.70;7.57;;;;;;;2.03;53.36;97527.94;4973124;28;20069;-77
2021/03/08 01:04:01;;;;;;;12.65;7.50;;;;;;;1.97;53.52;97526.09;4970810;28;20139;-77
2021/03/08 01:06:26;;;;;;;11.35;6.90;;;;;;;1.80;53.94;97514.41;4974522;28;20034;-77
2021/03/08 01:08:52;;;;;;;12.68;7.15;;;;;;;1.81;54.49;97513.47;4992075;28;20112;-77
2021/03/08 01:11:17;;;;;;;12.55;6.95;;;;;;;1.82;54.35;97518.41;4974631;28;20496;-77
2021/03/08 01:13:42;;;;;;;11.45;6.68;;;;;;;1.73;54.97;97514.38;4974147;28;20045;-77
2021/03/08 01:16:08;;;;;;;13.50;7.10;;;;;;;1.73;55.34;97516.13;4984169;28;20022;-77
2021/03/08 01:18:33;;;;;;;13.75;7.18;;;;;;;1.82;54.63;97520.97;4976165;28;20042;-77
2021/03/08 01:20:59;;;;;;;12.18;7.13;;;;;;;1.75;54.78;97511.59;4959638;28;20376;-77
2021/03/08 01:23:27;;;;;;;15.30;7.38;;;;;;;1.90;54.56;97512.38;4975818;28;20036;-77
2021/03/08 01:25:53;;;;;;;11.40;6.50;;;;;;;1.90;54.87;97509.00;4976186;28;20034;-77
2021/03/08 01:28:18;;;;;;;13.45;6.90;;;;;;;1.91;54.50;97511.41;4947071;28;20031;-77
2021/03/08 01:30:45;;;;;;;12.80;6.78;;;;;;;1.89;54.85;97505.66;4966010;28;20125;-77
2021/03/08 01:33:11;;;;;;;11.82;6.57;;;;;;;1.88;54.62;97509.19;4962632;28;20033;-77
2021/03/08 01:35:38;;;;;;;11.20;6.78;;;;;;;1.84;54.44;97502.84;4985625;28;20038;-77
2021/03/08 01:38:04;;;;;;;14.52;7.70;;;;;;;1.79;54.76;97489.75;4976206;28;20037;-77
2021/03/08 01:40:32;;;;;;;11.02;6.57;;;;;;;1.77;54.38;97492.50;4976294;28;20026;-77
2021/03/08 01:42:58;;;;;;;11.52;7.00;;;;;;;1.94;54.55;97498.22;4980558;28;20037;-77
2021/03/08 01:45:24;;;;;;;12.77;7.57;;;;;;;2.00;54.23;97497.47;4998122;28;20052;-77
2021/03/08 01:47:50;;;;;;;12.10;7.78;;;;;;;1.86;54.60;97488.03;4976475;28;20041;-77
2021/03/08 01:50:33;;;;;;;14.98;8.00;;;;;;;1.65;54.68;97488.78;4976459;28;20033;-77
2021/03/08 01:53:00;;;;;;;12.18;7.15;;;;;;;1.91;54.59;97493.44;4969129;28;20393;-77
2021/03/08 01:55:26;;;;;;;12.55;7.28;;;;;;;2.04;54.48;97492.78;5009232;28;20026;-77
2021/03/08 01:57:52;;;;;;;11.90;6.53;;;;;;;2.01;54.17;97488.81;4977096;28;20208;-77
2021/03/08 02:00:18;;;;;;;9.80;6.50;;;;;;;1.94;54.56;97487.94;4960866;28;20121;-77
2021/03/08 02:02:45;;;;;;;11.50;7.25;;;;;;;1.92;54.42;97489.91;4974024;28;20106;-77
2021/03/08 02:05:15;;;;;;;11.95;6.60;;;;;;;1.64;54.46;97484.63;4977019;28;20477;-77
2021/03/08 02:07:41;;;;;;;12.95;6.68;;;;;;;1.59;55.33;97482.59;4981611;28;20764;-77
2021/03/08 02:10:09;;;;;;;13.43;6.82;;;;;;;1.62;54.43;97489.16;4988816;28;20770;-77
2021/03/08 02:12:49;;;;;;;10.65;6.47;;;;;;;1.56;54.67;97485.53;4989229;28;20046;-77
2021/03/08 02:15:40;;;;;;;11.63;6.78;;;;;;;1.42;55.71;97478.63;4976428;28;20046;-77
2021/03/08 02:18:33;;;;;;;11.32;6.93;;;;;;;1.47;55.04;97481.47;4990534;28;20069;-77
2021/03/08 02:21:17;;;;;;;10.65;6.65;;;;;;;1.59;54.78;97482.59;4981646;28;20037;-77
2021/03/08 02:23:54;;;;;;;13.23;6.95;;;;;;;1.62;55.05;97479.66;4980480;28;20033;-77
2021/03/08 02:26:39;;;;;;;14.38;7.10;;;;;;;1.58;54.42;97481.00;4996278;28;20064;-77
2021/03/08 02:29:37;;;;;;;11.82;6.75;;;;;;;1.63;54.50;97481.28;4980732;28;20041;-77
2021/03/08 02:32:06;;;;;;;12.10;6.90;;;;;;;1.78;54.16;97481.25;4939863;28;20492;-77
2021/03/08 02:34:35;;;;;;;13.73;6.60;;;;;;;1.77;54.52;97479.66;4980492;28;20053;-77
2021/03/08 02:37:15;;;;;;;13.20;8.70;;;;;;;1.60;54.83;97478.28;4978173;28;20034;-77
2021/03/08 02:39:45;;;;;;;11.90;6.85;;;;;;;1.75;54.47;97470.53;4986371;28;20018;-77
2021/03/08 02:42:16;;;;;;;12.88;7.55;;;;;;;1.75;54.62;97473.91;4961342;28;20088;-77
2021/03/08 02:44:43;;;;;;;14.05;6.90;;;;;;;1.79;54.53;97472.56;5004384;28;20034;-77
2021/03/08 02:47:10;;;;;;;12.32;7.57;;;;;;;1.81;54.28;97467.25;4996358;28;20069;-77
2021/03/08 02:49:36;;;;;;;17.35;8.02;;;;;;;1.82;54.27;97463.72;4961313;28;20095;-77
2021/03/08 02:52:08;;;;;;;14.80;7.88;;;;;;;1.72;55.28;97469.13;4980245;28;20034;-77
2021/03/08 02:54:34;;;;;;;11.77;7.15;;;;;;;1.74;54.65;97458.69;4968026;28;20044;-77
2021/03/08 02:57:02;;;;;;;13.82;8.05;;;;;;;1.68;55.14;97463.56;4980108;28;20030;-77
2021/03/08 02:59:31;;;;;;;11.80;7.38;;;;;;;1.64;55.12;97453.84;4963555;28;20018;-77
2021/03/08 03:01:57;;;;;;;12.82;7.45;;;;;;;1.79;55.15;97464.06;4983415;28;20034;-77
2021/03/08 03:04:23;;;;;;;11.70;7.22;;;;;;;1.77;55.09;97464.25;4957585;28;20042;-77
2021/03/08 03:06:49;;;;;;;14.38;8.10;;;;;;;1.67;54.86;97469.66;4988213;28;20049;-77
2021/03/08 03:09:16;;;;;;;11.65;7.70;;;;;;;1.75;55.42;97463.66;4959761;28;20038;-77
2021/03/08 03:11:44;;;;;;;12.23;7.53;;;;;;;1.62;54.88;97459.13;4979026;28;20022;-77
2021/03/08 03:14:10;;;;;;;13.93;7.95;;;;;;;1.64;54.87;97457.19;4995039;28;20084;-77
2021/03/08 03:16:37;;;;;;;13.00;7.68;;;;;;;1.56;55.31;97461.63;4981980;28;20511;-77
2021/03/08 03:19:03;;;;;;;17.38;8.80;;;;;;;1.59;55.29;97467.19;4978655;28;20030;-77
2021/03/08 03:21:31;;;;;;;14.77;8.73;;;;;;;1.47;56.08;97468.63;4994558;28;20045;-77
2021/03/08 03:23:57;;;;;;;13.82;8.65;;;;;;;1.47;55.46;97460.94;4978344;28;20061;-77
2021/03/08 03:26:24;;;;;;;13.13;8.25;;;;;;;1.53;55.24;97469.69;4994578;28;20030;-77
2021/03/08 03:28:50;;;;;;;18.13;8.90;;;;;;;1.53;55.78;97472.28;4978264;28;20030;-77
2021/03/08 03:31:17;;;;;;;16.52;9.43;;;;;;;1.48;55.86;97475.38;5005223;28;20037;-77
2021/03/08 03:33:43;;;;;;;16.15;8.57;;;;;;;1.46;55.63;97470.41;4978387;28;20044;-77
2021/03/08 03:36:09;;;;;;;15.10;9.00;;;;;;;1.42;55.93;97470.94;5009067;28;20034;-77
2021/03/08 03:38:35;;;;;;;15.23;8.77;;;;;;;1.34;55.83;97469.28;5010425;28;20040;-76
2021/03/08 03:41:01;;;;;;;14.60;8.68;;;;;;;1.33;56.11;97469.44;4961847;28;20101;-77
2021/03/08 03:43:26;;;;;;;16.30;9.18;;;;;;;1.24;55.70;97477.22;4990378;28;20050;-77
2021/03/08 03:45:51;;;;;;;15.98;9.38;;;;;;;1.24;56.38;97482.34;4955554;28;20061;-77
2021/03/08 03:48:17;;;;;;;16.02;9.20;;;;;;;1.21;56.74;97480.13;4978004;28;20033;-77
2021/03/08 03:50:42;;;;;;;17.33;9.23;;;;;;;1.21;56.49;97474.22;4959679;28;20045;-77
2021/03/08 03:53:08;;;;;;;15.43;8.10;;;;;;;1.16;56.04;97479.88;4954964;28;20030;-76
2021/03/08 03:55:34;;;;;;;15.50;8.80;;;;;;;1.18;56.46;97488.19;4968893;28;20045;-76
2021/03/08 03:58:09;;;;;;;14.20;7.80;;;;;;;1.02;56.74;97486.59;4972896;28;20041;-77
2021/03/08 04:00:52;;;;;;;12.57;7.30;;;;;;;0.91;57.17;97487.81;4976824;28;20477;-76
2021/03/08 04:03:20;;;;;;;14.32;8.18;;;;;;;1.04;56.32;97491.53;5008477;28;20435;-77
2021/03/08 04:05:46;;;;;;;13.45;8.00;;;;;;;1.12;56.39;97489.69;4974574;28;20133;-77
2021/03/08 04:08:11;;;;;;;15.73;9.15;;;;;;;1.14;56.61;97489.50;4987946;28;20699;-76
2021/03/08 04:10:38;;;;;;;16.30;8.98;;;;;;;1.13;56.14;97490.47;4976525;28;20038;-76
2021/03/08 04:13:09;;;;;;;14.68;9.00;;;;;;;1.01;57.31;97494.44;4973115;28;20766;-76
2021/03/08 04:15:35;;;;;;;16.63;9.35;;;;;;;1.10;56.64;97495.97;4988132;28;20100;-76
2021/03/08 04:18:01;;;;;;;16.58;9.00;;;;;;;1.07;56.90;97496.31;4967279;28;20627;-76
2021/03/08 04:20:29;;;;;;;15.75;9.23;;;;;;;1.12;56.15;97494.03;4992741;28;20416;-76
2021/03/08 04:22:55;;;;;;;13.48;8.60;;;;;;;1.07;57.17;97491.97;4981981;28;20034;-76
2021/03/08 04:25:21;;;;;;;17.55;9.10;;;;;;;1.05;56.71;97496.50;4973956;28;20037;-76
2021/03/08 04:27:47;;;;;;;14.00;8.18;;;;;;;0.99;57.25;97488.72;4994653;28;20499;-76
2021/03/08 04:30:14;;;;;;;15.48;8.88;;;;;;;0.98;57.00;97498.19;4985869;28;20041;-76
2021/03/08 04:32:39;;;;;;;17.65;9.40;;;;;;;0.81;57.60;97497.53;4986573;28;20061;-76
2021/03/08 04:35:07;;;;;;;17.25;9.45;;;;;;;0.67;57.46;97500.84;4973743;28;20081;-76
2021/03/08 04:37:34;;;;;;;16.02;9.10;;;;;;;0.52;58.41;97493.13;4965586;28;20033;-76
2021/03/08 04:39:59;;;;;;;17.10;9.77;;;;;;;0.59;58.45;97508.59;4995474;28;20088;-76
2021/03/08 04:42:25;;;;;;;15.52;8.82;;;;;;;0.58;58.36;97509.56;4963405;28;20033;-76
2021/03/08 04:44:51;;;;;;;16.40;9.48;;;;;;;0.50;58.37;97506.09;4960487;28;20112;-76
2021/03/08 04:47:22;;;;;;;15.80;9.43;;;;;;;0.27;58.53;97512.97;4992625;28;20114;-76
2021/03/08 04:49:48;;;;;;;14.77;8.52;;;;;;;0.42;58.32;97518.97;4974182;28;20026;-76
2021/03/08 04:52:14;;;;;;;17.42;9.75;;;;;;;0.46;57.64;97519.41;4984873;28;20034;-76
2021/03/08 04:54:44;;;;;;;18.80;9.70;;;;;;;0.21;57.48;97513.66;4992590;28;20061;-76
2021/03/08 04:57:10;;;;;;;19.40;10.02;;;;;;;0.29;58.47;97513.59;4986287;28;20084;-76
2021/03/08 04:59:35;;;;;;;16.75;9.63;;;;;;;0.36;58.38;97509.38;4975947;28;20030;-76
2021/03/08 05:02:01;;;;;;;22.17;9.45;;;;;;;0.38;58.46;97512.59;4960591;28;20087;-76
2021/03/08 05:04:26;;;;;;;18.77;9.63;;;;;;;0.39;59.60;97518.50;4959371;28;20424;-76
2021/03/08 05:06:53;;;;;;;17.02;9.32;;;;;;;0.33;57.91;97510.53;4952524;28;20038;-76
2021/03/08 05:09:19;;;;;;;21.17;10.25;;;;;;;0.29;59.10;97508.47;4992284;28;20109;-76
2021/03/08 05:11:46;;;;;;;20.63;11.13;;;;;;;0.31;58.95;97516.78;4960302;28;20036;-76
2021/03/08 05:14:16;;;;;;;31.08;15.73;;;;;;;0.23;59.17;97519.41;4973457;28;20045;-76
2021/03/08 05:16:43;;;;;;;23.85;12.73;;;;;;;0.26;59.13;97503.69;4978523;28;20105;-76
2021/03/08 05:19:13;;;;;;;17.95;11.13;;;;;;;0.31;59.25;97511.66;4992519;28;20029;-76
2021/03/08 05:21:38;;;;;;;18.75;10.05;;;;;;;0.34;58.76;97512.16;4959573;28;20955;-76
2021/03/08 05:24:04;;;;;;;19.63;9.32;;;;;;;0.31;59.05;97519.34;4953728;28;20034;-76
2021/03/08 05:26:30;;;;;;;17.73;9.43;;;;;;;0.39;58.73;97518.50;4947717;28;20461;-76
2021/03/08 05:28:56;;;;;;;18.10;9.55;;;;;;;0.29;59.18;97514.41;5001706;28;20116;-76
2021/03/08 05:31:23;;;;;;;15.70;8.27;;;;;;;0.33;58.33;97530.25;4996211;28;20029;-76
2021/03/08 05:33:52;;;;;;;16.58;9.77;;;;;;;0.06;59.02;97524.63;4983083;28;20037;-76
2021/03/08 05:36:18;;;;;;;16.83;9.32;;;;;;;0.21;59.76;97529.00;4960932;28;20478;-76
2021/03/08 05:38:44;;;;;;;14.70;8.60;;;;;;;0.24;58.62;97532.06;4994873;28;20068;-76
2021/03/08 05:41:31;;;;;;;15.68;9.15;;;;;;;-0.12;58.77;97531.75;4979493;28;20030;-76
2021/03/08 05:44:02;;;;;;;18.25;9.55;;;;;;;-0.08;59.65;97533.03;4979853;28;20045;-76
2021/03/08 05:47:12;;;;;;;18.42;9.35;;;;;;;-0.18;59.82;97530.66;4971122;28;20042;-76
2021/03/08 05:49:54;;;;;;;16.48;9.20;;;;;;;-0.10;59.75;97532.41;4982523;28;20119;-76
2021/03/08 05:52:38;;;;;;;18.73;9.30;;;;;;;-0.24;60.97;97539.81;4969934;28;20058;-76
2021/03/08 05:55:22;;;;;;;16.45;9.25;;;;;;;-0.40;60.68;97539.88;4998831;28;20484;-76
2021/03/08 05:58:12;;;;;;;18.50;10.45;;;;;;;-0.37;60.83;97544.66;4963234;28;20029;-76
2021/03/08 06:01:01;;;;;;;18.48;10.00;;;;;;;-0.24;59.83;97551.78;4978426;28;20026;-76
2021/03/08 06:03:45;;;;;;;20.50;10.50;;;;;;;-0.29;60.00;97547.19;4965714;28;20108;-76
2021/03/08 06:06:45;;;;;;;21.58;11.90;;;;;;;-0.22;60.39;97547.31;4960665;28;20045;-76
2021/03/08 06:09:23;;;;;;;19.20;10.55;;;;;;;-0.05;59.97;97558.28;4978512;28;20109;-76
2021/03/08 06:11:59;;;;;;;17.48;9.38;;;;;;;-0.16;59.94;97556.09;4971844;28;20030;-76
2021/03/08 06:14:43;;;;;;;20.63;10.20;;;;;;;-0.10;59.50;97558.00;5002152;28;20129;-76
2021/03/08 06:17:16;;;;;;;31.13;20.85;;;;;;;-0.06;59.64;97551.56;4977665;28;20040;-76
2021/03/08 06:19:42;;;;;;;25.67;14.50;;;;;;;0.23;59.33;97552.72;4972213;28;20030;-76
2021/03/08 06:22:09;;;;;;;18.35;11.05;;;;;;;0.23;59.63;97555.28;4994896;28;20491;-76
2021/03/08 06:24:39;;;;;;;20.92;11.27;;;;;;;0.14;59.63;97552.75;4978907;28;20034;-76
2021/03/08 06:27:07;;;;;;;25.15;13.52;;;;;;;0.33;59.58;97555.84;4995352;28;20057;-76
2021/03/08 06:29:33;;;;;;;19.45;11.85;;;;;;;0.47;59.02;97562.78;5008168;28;20105;-77
2021/03/08 06:31:59;;;;;;;21.67;10.77;;;;;;;0.44;59.29;97558.00;4981114;28;20041;-77
2021/03/08 06:34:25;;;;;;;18.90;10.90;;;;;;;0.28;59.60;97551.22;4995885;28;20030;-77
2021/03/08 06:36:53;;;;;;;18.17;9.93;;;;;;;0.18;59.53;97554.00;4980235;28;20034;-77
2021/03/08 06:39:18;;;;;;;33.25;18.42;;;;;;;0.39;59.47;97546.69;4996001;28;20053;-77
2021/03/08 06:41:44;;;;;;;35.22;20.25;;;;;;;0.56;59.10;97561.75;4943501;28;20629;-77
2021/03/08 06:44:09;;;;;;;41.58;23.63;;;;;;;0.68;58.35;97554.47;4976499;28;20037;-77
2021/03/08 06:46:35;;;;;;;19.17;10.43;;;;;;;0.69;58.49;97550.97;5004329;28;20396;-77
2021/03/08 06:49:01;;;;;;;22.23;12.88;;;;;;;0.83;58.18;97556.31;4981554;28;20037;-77
2021/03/08 06:51:27;;;;;;;18.42;9.90;;;;;;;0.86;57.97;97567.00;4980190;28;20021;-77
2021/03/08 06:53:52;;;;;;;17.58;9.30;;;;;;;0.89;58.43;97571.81;5014397;28;20033;-77
2021/03/08 06:56:21;;;;;;;18.20;8.80;;;;;;;0.79;58.11;97571.22;4956469;28;20147;-77
2021/03/08 06:59:08;;;;;;;17.13;9.73;;;;;;;0.88;57.63;97566.84;4999913;28;20045;-77
2021/03/08 07:01:37;;;;;;;16.55;9.18;;;;;;;1.14;57.18;97574.16;4989688;28;20040;-77
2021/03/08 07:04:09;;;;;;;16.90;9.07;;;;;;;1.45;57.50;97583.47;4996356;28;20042;-77
2021/03/08 07:06:35;;;;;;;13.30;7.13;;;;;;;1.63;57.00;97583.94;5010023;28;20088;-77
2021/03/08 07:09:06;;;;;;;17.83;9.23;;;;;;;1.59;56.27;97590.38;4992591;28;20424;-78
2021/03/08 07:11:31;;;;;;;15.57;8.50;;;;;;;1.86;55.78;97588.19;4969173;28;20525;-78
2021/03/08 07:13:58;;;;;;;15.52;8.15;;;;;;;1.91;56.28;97593.56;4982595;28;20030;-78
2021/03/08 07:16:38;;;;;;;13.75;8.27;;;;;;;1.76;56.13;97588.44;4986177;28;20562;-78
2021/03/08 07:19:03;;;;;;;17.45;8.25;;;;;;;1.94;55.98;97593.22;4952935;28;20058;-78
2021/03/08 07:21:29;;;;;;;14.13;8.02;;;;;;;2.00;55.52;97595.06;4962101;28;20060;-78
2021/03/08 07:24:07;;;;;;;13.65;7.78;;;;;;;1.68;55.97;97593.69;4959697;28;20069;-77
2021/03/08 07:26:33;;;;;;;16.25;7.15;;;;;;;2.01;55.50;97596.66;4984704;28;20034;-78
2021/03/08 07:29:12;;;;;;;13.57;7.82;;;;;;;1.73;55.86;97608.53;5007694;28;20150;-77
2021/03/08 07:31:39;;;;;;;13.15;6.60;;;;;;;2.37;55.39;97603.59;4984838;28;20033;-77
2021/03/08 07:34:08;;;;;;;13.40;7.03;;;;;;;2.44;54.31;97604.47;4946233;28;20371;-77
2021/03/08 07:36:38;;;;;;;10.57;6.00;;;;;;;2.70;54.20;97600.56;4996526;28;20037;-77
2021/03/08 07:39:17;;;;;;;13.32;6.40;;;;;;;2.68;53.98;97602.53;4975532;28;20034;-78
2021/03/08 07:42:10;;;;;;;13.02;8.18;;;;;;;2.72;53.52;97602.97;5006429;28;20049;-77
2021/03/08 07:44:47;;;;;;;9.20;5.70;;;;;;;2.89;52.99;97609.44;4989724;28;20041;-78
2021/03/08 07:47:20;;;;;;;9.43;5.70;;;;;;;3.45;52.43;97611.28;4974231;28;20656;-77
2021/03/08 07:49:46;;;;;;;8.55;4.93;;;;;;;3.85;50.87;97608.94;4974799;28;20034;-78
2021/03/08 07:52:13;;;;;;;10.35;5.18;;;;;;;3.98;50.55;97607.44;4952136;28;20022;-78
2021/03/08 07:55:01;;;;;;;9.55;5.40;;;;;;;3.82;50.96;97614.50;4991962;28;20113;-78
2021/03/08 07:57:29;;;;;;;7.88;4.38;;;;;;;4.31;50.30;97607.56;4997364;28;20053;-78
2021/03/08 07:59:54;;;;;;;8.88;5.00;;;;;;;4.30;49.44;97614.50;4977446;28;20033;-78
2021/03/08 08:02:20;;;;;;;8.23;4.80;;;;;;;4.37;49.88;97621.47;4974220;28;20456;-78
2021/03/08 08:04:46;;;;;;;9.35;5.78;;;;;;;4.56;50.13;97617.34;4982820;28;20056;-77
2021/03/08 08:07:13;;;;;;;8.15;4.78;;;;;;;4.57;48.88;97624.88;4978806;28;20026;-78
2021/03/08 08:09:42;;;;;;;7.53;4.57;;;;;;;4.97;49.00;97626.75;5005672;28;20469;-78
2021/03/08 08:12:10;;;;;;;9.48;4.65;;;;;;;4.95;48.53;97619.22;4974581;28;20115;-78
2021/03/08 08:14:39;;;;;;;8.18;4.78;;;;;;;5.33;48.00;97626.38;4988237;28;20061;-78
2021/03/08 08:17:08;;;;;;;9.80;5.90;;;;;;;5.14;47.78;97632.31;4994011;28;20408;-78
2021/03/08 08:19:36;;;;;;;8.65;5.25;;;;;;;5.34;47.50;97632.34;4993169;28;20029;-78
2021/03/08 08:22:02;;;;;;;8.90;5.30;;;;;;;5.69;46.99;97637.28;4987484;28;20041;-79
2021/03/08 08:24:28;;;;;;;9.57;5.28;;;;;;;5.62;47.49;97619.19;4977934;28;20034;-78
2021/03/08 08:26:55;;;;;;;9.45;5.40;;;;;;;5.85;46.96;97623.16;4974446;28;20243;-79
2021/03/08 08:29:22;;;;;;;13.90;4.82;;;;;;;5.77;45.99;97627.50;4972147;28;20030;-78
2021/03/08 08:32:02;;;;;;;10.27;5.40;;;;;;;5.48;46.81;97618.41;4977525;28;20033;-78
2021/03/08 08:34:45;;;;;;;8.93;5.20;;;;;;;5.70;46.37;97631.13;4992344;28;20033;-78
2021/03/08 08:37:12;;;;;;;9.38;5.32;;;;;;;5.56;47.11;97630.34;4958990;28;20128;-79
2021/03/08 08:39:41;;;;;;;8.15;4.88;;;;;;;6.06;46.45;97620.31;4961654;28;20038;-79
2021/03/08 08:42:21;;;;;;;9.10;5.25;;;;;;;5.31;47.76;97623.19;4961067;28;20325;-78
2021/03/08 08:44:51;;;;;;;12.07;5.93;;;;;;;5.60;47.55;97618.59;4994149;28;20033;-78
2021/03/08 08:47:20;;;;;;;13.02;5.95;;;;;;;5.66;47.28;97628.16;4991644;28;20038;-78
2021/03/08 08:49:48;;;;;;;10.70;5.65;;;;;;;6.18;46.73;97625.66;4964691;28;20041;-78
2021/03/08 08:52:14;;;;;;;13.93;6.35;;;;;;;6.14;46.60;97622.69;4973313;28;20121;-78
2021/03/08 08:54:39;;;;;;;8.32;5.70;;;;;;;6.32;45.24;97621.22;4986060;28;20045;-79
2021/03/08 08:57:10;;;;;;;10.65;5.35;;;;;;;6.39;45.62;97621.97;4994996;28;20042;-79
2021/03/08 08:59:37;;;;;;;10.80;5.93;;;;;;;6.64;45.94;97623.88;4979474;28;20029;-78
2021/03/08 09:02:13;;;;;;;12.15;6.32;;;;;;;6.77;44.53;97622.97;4957364;28;20045;-79
2021/03/08 09:04:40;;;;;;;9.27;5.40;;;;;;;7.08;45.27;97619.59;4999487;28;20034;-78
2021/03/08 09:07:19;;;;;;;8.93;5.53;;;;;;;7.08;44.18;97624.78;4962049;28;20042;-78
2021/03/08 09:09:49;;;;;;;11.48;5.97;;;;;;;7.67;43.93;97627.88;4961099;28;20044;-78
2021/03/08 09:12:26;;;;;;;9.52;5.47;;;;;;;7.44;43.96;97615.53;4993534;28;20034;-78
2021/03/08 09:14:54;;;;;;;8.68;5.13;;;;;;;7.92;42.58;97617.47;5009630;28;20331;-78
2021/03/08 09:17:33;;;;;;;10.73;5.10;;;;;;;7.46;43.56;97623.88;4978808;28;20033;-79
2021/03/08 09:19:58;;;;;;;10.32;5.68;;;;;;;7.81;43.04;97623.34;4958883;28;20023;-78
2021/03/08 09:22:24;;;;;;;9.52;5.53;;;;;;;7.74;43.78;97623.41;5003162;28;20034;-79
2021/03/08 09:24:57;;;;;;;8.02;5.20;;;;;;;7.24;42.77;97613.88;4992472;28;20093;-78
2021/03/08 09:27:28;;;;;;;8.98;5.47;;;;;;;7.56;43.70;97620.81;4974658;28;20096;-78
2021/03/08 09:30:00;;;;;;;9.63;5.50;;;;;;;7.24;43.67;97616.47;5011201;28;20121;-78
2021/03/08 09:32:25;;;;;;;11.82;5.70;;;;;;;7.82;42.81;97611.97;4972882;28;20041;-76
2021/03/08 09:34:51;;;;;;;8.75;4.97;;;;;;;8.07;42.11;97619.69;4938996;28;20038;-76
2021/03/08 09:37:16;;;;;;;10.27;5.15;;;;;;;8.11;42.17;97601.91;4979651;28;20048;-76
2021/03/08 09:39:51;;;;;;;8.65;5.18;;;;;;;8.10;41.24;97610.69;4969097;28;20499;-76
2021/03/08 09:42:17;;;;;;;8.68;4.60;;;;;;;8.21;41.58;97615.16;4951910;28;20026;-76
2021/03/08 09:44:45;;;;;;;8.52;4.70;;;;;;;7.54;41.47;97613.25;4977627;28;20037;-76
2021/03/08 09:47:11;;;;;;;9.35;4.45;;;;;;;7.24;42.38;97616.47;4972973;28;20540;-75
2021/03/08 09:49:55;;;;;;;10.15;4.20;;;;;;;6.94;42.52;97605.97;4957598;28;20149;-75
2021/03/08 09:52:36;;;;;;;10.27;5.22;;;;;;;6.77;43.67;97603.09;4990483;28;20109;-75
2021/03/08 09:55:09;;;;;;;7.20;4.28;;;;;;;7.11;42.83;97611.41;4974475;28;20041;-75
2021/03/08 09:57:39;;;;;;;7.88;4.45;;;;;;;7.48;42.63;97611.50;4974160;28;20034;-75
2021/03/08 10:00:16;;;;;;;7.90;4.55;;;;;;;6.87;42.77;97607.78;4983060;28;20050;-76
2021/03/08 10:02:42;;;;;;;7.07;4.00;;;;;;;6.99;43.00;97608.72;4992942;28;20386;-75
2021/03/08 10:05:09;;;;;;;7.22;4.53;;;;;;;6.64;43.56;97608.34;4991831;28;20041;-76
2021/03/08 10:07:49;;;;;;;10.75;5.20;;;;;;;6.32;43.69;97611.69;4964669;28;20429;-76
2021/03/08 10:10:16;;;;;;;9.50;5.40;;;;;;;6.88;43.82;97611.97;4978748;28;20115;-75
2021/03/08 10:12:41;;;;;;;10.07;4.95;;;;;;;6.45;44.47;97621.16;4973504;28;20389;-75
2021/03/08 10:15:09;;;;;;;8.82;4.68;;;;;;;7.07;43.16;97618.00;4968085;28;20034;-75
2021/03/08 10:17:35;;;;;;;7.93;4.25;;;;;;;7.03;43.92;97625.41;4974208;28;20126;-76
2021/03/08 10:20:04;;;;;;;7.10;4.03;;;;;;;6.63;44.38;97620.50;4957599;28;20489;-76
2021/03/08 10:22:39;;;;;;;7.45;4.00;;;;;;;7.44;43.16;97618.13;4977437;28;20026;-76
2021/03/08 10:25:24;;;;;;;9.15;4.70;;;;;;;7.40;41.90;97614.38;4974058;28;20184;-76
2021/03/08 10:27:54;;;;;;;9.60;4.30;;;;;;;7.20;43.09;97615.31;4958767;28;20034;-78
2021/03/08 10:30:21;;;;;;;10.07;3.85;;;;;;;7.43;42.06;97612.13;4978881;28;20112;-78
2021/03/08 10:32:47;;;;;;;7.13;4.00;;;;;;;7.72;41.84;97614.28;4969528;28;20030;-78
2021/03/08 10:35:12;;;;;;;5.57;2.78;;;;;;;7.82;40.89;97617.16;4994681;28;20036;-78
2021/03/08 10:37:39;;;;;;;7.72;3.90;;;;;;;7.74;41.23;97612.25;4977587;28;20072;-78
2021/03/08 10:40:09;;;;;;;6.82;3.97;;;;;;;8.19;40.45;97617.16;4977989;28;20037;-78
2021/03/08 10:42:37;;;;;;;7.07;3.42;;;;;;;8.00;40.86;97600.81;4983246;28;20203;-78
2021/03/08 10:45:09;;;;;;;7.90;3.50;;;;;;;7.45;40.99;97606.75;4971901;28;20537;-77
2021/03/08 10:47:40;;;;;;;6.63;3.70;;;;;;;7.24;41.65;97595.75;4973085;28;20111;-78
2021/03/08 10:50:07;;;;;;;7.93;3.85;;;;;;;8.02;41.16;97606.56;4961726;28;20093;-77
2021/03/08 10:52:33;;;;;;;8.90;4.70;;;;;;;7.66;41.60;97601.19;4977456;28;20026;-78
2021/03/08 10:54:58;;;;;;;6.70;3.63;;;;;;;7.66;41.24;97593.41;4977921;28;20041;-77
2021/03/08 10:57:25;;;;;;;9.07;4.40;;;;;;;7.93;40.73;97590.50;4977609;28;20038;-78
2021/03/08 10:59:53;;;;;;;7.20;3.40;;;;;;;8.56;40.00;97586.00;4994039;28;20033;-78
2021/03/08 11:02:19;;;;;;;6.97;3.40;;;;;;;8.61;38.96;97586.13;4975680;28;20158;-78
2021/03/08 11:04:47;;;;;;;7.85;4.18;;;;;;;8.58;39.28;97594.34;4968226;28;20052;-78
2021/03/08 11:07:13;;;;;;;5.88;3.50;;;;;;;8.55;39.39;97587.00;4986554;28;20033;-77
2021/03/08 11:09:45;;;;;;;6.35;3.45;;;;;;;8.78;38.48;97575.91;4985183;28;20576;-78
2021/03/08 11:12:19;;;;;;;5.45;3.45;;;;;;;8.66;38.69;97575.88;4991983;28;20532;-77
2021/03/08 11:14:58;;;;;;;6.75;3.30;;;;;;;8.21;39.63;97579.63;5009539;28;20044;-77
2021/03/08 11:17:49;;;;;;;7.88;3.50;;;;;;;8.88;38.53;97581.34;4975703;28;20490;-77
2021/03/08 11:20:15;;;;;;;5.35;3.10;;;;;;;8.90;37.88;97584.50;4988139;28;20030;-77
2021/03/08 11:23:05;;;;;;;6.85;3.67;;;;;;;9.44;38.20;97578.44;4977458;28;20072;-78
2021/03/08 11:25:42;;;;;;;4.35;3.13;;;;;;;10.24;36.01;97584.75;4994508;28;20489;-78
2021/03/08 11:28:10;;;;;;;7.82;4.07;;;;;;;10.56;35.85;97577.28;4969940;28;20034;-77
2021/03/08 11:30:36;;;;;;;5.93;3.13;;;;;;;10.90;35.35;97579.13;4976883;28;20130;-77
2021/03/08 11:33:08;;;;;;;7.10;4.40;;;;;;;10.47;35.32;97563.09;4977826;28;20109;-77
2021/03/08 11:35:35;;;;;;;5.05;3.30;;;;;;;10.40;37.11;97570.22;4959604;28;20079;-79
2021/03/08 11:38:05;;;;;;;7.18;3.38;;;;;;;10.82;35.19;97567.31;4983572;28;20038;-78
2021/03/08 11:40:33;;;;;;;5.70;3.13;;;;;;;11.62;34.11;97562.75;4958872;28;20081;-78
2021/03/08 11:42:59;;;;;;;7.55;3.78;;;;;;;10.82;35.29;97567.31;4999058;28;20041;-77
2021/03/08 11:45:26;;;;;;;6.78;3.60;;;;;;;10.54;35.70;97560.31;4997859;28;20037;-77